^^
Datos históricos de la estación: Murcia-Puente Tocinos
Diario Informe para Mayo 09, 2021 Unidades:  Ambas    Ingés   Métrico
Diario Semanal Mensual Anual
  Máxima: Mínima: Promedio:
Temperatura: 83.3 °F /  28.5 °C 64.9 °F /  18.3 °C 74.5 °F /  23.6 °C
Punto de rocio: 57.6 °F /  14.2 °C 49.5 °F /  9.7 °C 53.2 °F /  11.8 °C
Humedad: 67.9% 35.8% 48%
Velocidad viento: 18.5mph /  29.8km/h - 8.5mph /  13.7km/h
Racha viento: 35mph /  56.3km/h - -
Viento- - SSE
Presión: 29.9 in /  1011.6 hPa 29.6 in /  1001.8 hPa -
Precipitación: 0.01 in /  0.3 mm    
 
 
Tabla de datos para Mayo 09, 2021
Hora Temperatura Punto de rocio Presión Viento Velocidad viento Racha viento Humedad Intensidad lluvia(por hora) Nubes
00:00 66.9 °F /  19.4 °C 51.3 °F /  10.7 °C 29.9in /  1011.6hPa North 2mph /  3.2km/h 3mph /  4.8km/h 57% 0in /  0.0mm
01:34 66.6 °F /  19.2 °C 51.8 °F /  11 °C 29.9in /  1011.2hPa SSO 3.1mph /  5km/h 4.6mph /  7.4km/h 59% 0in /  0.0mm
01:39 66.6 °F /  19.2 °C 51.8 °F /  11 °C 29.9in /  1011.2hPa SSO 3.1mph /  5km/h 5mph /  8km/h 59% 0in /  0.0mm
01:44 66.7 °F /  19.3 °C 52 °F /  11.1 °C 29.9in /  1011.3hPa SSO 3.1mph /  5km/h 5mph /  8km/h 59% 0in /  0.0mm
01:49 67.1 °F /  19.5 °C 52.2 °F /  11.2 °C 29.9in /  1011.3hPa SSO 3.1mph /  5km/h 5.2mph /  8.4km/h 59% 0in /  0.0mm
01:54 67.3 °F /  19.6 °C 52.3 °F /  11.3 °C 29.9in /  1011.3hPa Sur 3.1mph /  5km/h 5mph /  8km/h 58.9% 0in /  0.0mm
01:59 67.3 °F /  19.6 °C 52 °F /  11.1 °C 29.9in /  1011.3hPa Sur 3.1mph /  5km/h 5.2mph /  8.4km/h 58% 0in /  0.0mm
02:04 66.9 °F /  19.4 °C 51.6 °F /  10.9 °C 29.9in /  1011.0hPa Sur 3.1mph /  5km/h 6.2mph /  10km/h 57.8% 0in /  0.0mm
02:09 66.7 °F /  19.3 °C 51.6 °F /  10.9 °C 29.9in /  1011.0hPa SSE 3.4mph /  5.5km/h 6mph /  9.7km/h 58% 0in /  0.0mm
02:14 66.6 °F /  19.2 °C 50.9 °F /  10.5 °C 29.9in /  1011.0hPa SSE 3.6mph /  5.8km/h 6.9mph /  11.1km/h 57.1% 0in /  0.0mm
02:19 66.2 °F /  19 °C 50.4 °F /  10.2 °C 29.9in /  1010.8hPa Sur 3.8mph /  6.1km/h 7mph /  11.3km/h 56.7% 0in /  0.0mm
02:24 65.8 °F /  18.8 °C 49.8 °F /  9.9 °C 29.9in /  1010.8hPa Sur 4mph /  6.5km/h 7mph /  11.3km/h 56% 0in /  0.0mm
02:29 65.8 °F /  18.8 °C 49.6 °F /  9.8 °C 29.9in /  1010.8hPa Sur 4.2mph /  6.7km/h 7.4mph /  11.9km/h 56% 0in /  0.0mm
02:34 65.8 °F /  18.8 °C 49.8 °F /  9.9 °C 29.9in /  1010.8hPa Sur 4.3mph /  6.9km/h 7mph /  11.3km/h 56% 0in /  0.0mm
02:39 66 °F /  18.9 °C 49.5 °F /  9.7 °C 29.9in /  1010.8hPa SSO 4.3mph /  6.9km/h 6.9mph /  11.1km/h 55% 0in /  0.0mm
02:44 66.2 °F /  19 °C 49.5 °F /  9.7 °C 29.9in /  1010.8hPa SSO 4.3mph /  6.9km/h 7.4mph /  11.9km/h 55% 0in /  0.0mm
02:49 66.4 °F /  19.1 °C 49.6 °F /  9.8 °C 29.8in /  1010.6hPa SSO 4.3mph /  6.9km/h 7mph /  11.3km/h 55% 0in /  0.0mm
02:54 66.6 °F /  19.2 °C 49.8 °F /  9.9 °C 29.8in /  1010.6hPa SSO 4.3mph /  6.9km/h 6.9mph /  11.1km/h 55% 0in /  0.0mm
02:59 66.6 °F /  19.2 °C 49.8 °F /  9.9 °C 29.8in /  1010.6hPa SO 4.1mph /  6.6km/h 7mph /  11.3km/h 55% 0in /  0.0mm
03:04 66.6 °F /  19.2 °C 49.8 °F /  9.9 °C 29.8in /  1010.6hPa SO 4mph /  6.5km/h 7.4mph /  11.9km/h 55% 0in /  0.0mm
03:09 66.6 °F /  19.2 °C 49.8 °F /  9.9 °C 29.8in /  1010.6hPa Oeste 4.2mph /  6.7km/h 7mph /  11.3km/h 55% 0in /  0.0mm
03:14 66.4 °F /  19.1 °C 50.2 °F /  10.1 °C 29.8in /  1010.6hPa Oeste 4.3mph /  6.9km/h 6mph /  9.7km/h 55.9% 0in /  0.0mm
03:19 66 °F /  18.9 °C 50 °F /  10 °C 29.8in /  1010.0hPa OSO 3.5mph /  5.7km/h 6.2mph /  10km/h 56% 0in /  0.0mm
03:24 65.8 °F /  18.8 °C 49.6 °F /  9.8 °C 29.8in /  1010.0hPa OSO 3.1mph /  5km/h 6.2mph /  10km/h 56% 0in /  0.0mm
03:29 65.8 °F /  18.8 °C 49.6 °F /  9.8 °C 29.8in /  1010.0hPa OSO 3.9mph /  6.2km/h 8.1mph /  13km/h 56% 0in /  0.0mm
03:34 65.7 °F /  18.7 °C 49.5 °F /  9.7 °C 29.8in /  1009.9hPa Oeste 4.3mph /  6.9km/h 8mph /  12.9km/h 56% 0in /  0.0mm
03:39 65.7 °F /  18.7 °C 49.8 °F /  9.9 °C 29.8in /  1009.9hPa SO 4.1mph /  6.6km/h 7mph /  11.3km/h 56.5% 0in /  0.0mm
03:44 65.8 °F /  18.8 °C 50 °F /  10 °C 29.8in /  1009.9hPa SO 4mph /  6.5km/h 7.4mph /  11.9km/h 56.7% 0in /  0.0mm
03:49 66 °F /  18.9 °C 49.8 °F /  9.9 °C 29.8in /  1009.4hPa SO 4.2mph /  6.7km/h 7.4mph /  11.9km/h 56% 0in /  0.0mm
03:54 66.2 °F /  19 °C 50 °F /  10 °C 29.8in /  1009.4hPa SSO 4.3mph /  6.9km/h 10.4mph /  16.7km/h 56% 0in /  0.0mm
03:59 66.4 °F /  19.1 °C 50.2 °F /  10.1 °C 29.8in /  1009.5hPa Sur 4.8mph /  7.8km/h 10mph /  16.1km/h 56% 0in /  0.0mm
04:04 66.6 °F /  19.2 °C 50.2 °F /  10.1 °C 29.8in /  1009.5hPa SSO 5.2mph /  8.4km/h 8mph /  12.9km/h 55.7% 0in /  0.0mm
04:09 66.7 °F /  19.3 °C 50 °F /  10 °C 29.8in /  1009.5hPa SSE 4.7mph /  7.5km/h 10.2mph /  16.4km/h 55% 0in /  0.0mm
04:14 66 °F /  18.9 °C 50.2 °F /  10.1 °C 29.8in /  1009.5hPa Sur 4.3mph /  6.9km/h 10.7mph /  17.2km/h 56.6% 0in /  0.0mm
04:19 65.3 °F /  18.5 °C 50 °F /  10 °C 29.8in /  1009.3hPa SSO 5.5mph /  8.8km/h 11mph /  17.7km/h 58% 0in /  0.0mm
04:24 65.1 °F /  18.4 °C 50 °F /  10 °C 29.8in /  1009.3hPa Sur 6.2mph /  10km/h 9mph /  14.5km/h 58% 0in /  0.0mm
04:29 65.3 °F /  18.5 °C 50 °F /  10 °C 29.8in /  1009.3hPa Sur 4.8mph /  7.7km/h 5.2mph /  8.4km/h 58% 0in /  0.0mm
04:34 65.5 °F /  18.6 °C 50.4 °F /  10.2 °C 29.8in /  1009.3hPa Sur 3.6mph /  5.8km/h 5.8mph /  9.3km/h 58% 0in /  0.0mm
04:39 65.5 °F /  18.6 °C 50.4 °F /  10.2 °C 29.8in /  1009.3hPa SO 3.6mph /  5.8km/h 6mph /  9.7km/h 57.9% 0in /  0.0mm
04:44 65.7 °F /  18.7 °C 50 °F /  10 °C 29.8in /  1009.3hPa SO 3.6mph /  5.8km/h 6mph /  9.7km/h 57% 0in /  0.0mm
04:49 65.8 °F /  18.8 °C 50.2 °F /  10.1 °C 29.8in /  1009.1hPa Sur 3.3mph /  5.3km/h 5mph /  8km/h 57% 0in /  0.0mm
04:54 65.8 °F /  18.8 °C 50 °F /  10 °C 29.8in /  1009.1hPa SSE 3.1mph /  5km/h 5mph /  8km/h 56.3% 0in /  0.0mm
04:59 66 °F /  18.9 °C 49.8 °F /  9.9 °C 29.8in /  1009.1hPa OSO 2.6mph /  4.2km/h 5.9mph /  9.5km/h 56% 0in /  0.0mm
05:04 66 °F /  18.9 °C 50 °F /  10 °C 29.8in /  1008.7hPa Oeste 2.4mph /  3.9km/h 6mph /  9.7km/h 56% 0in /  0.0mm
05:09 66 °F /  18.9 °C 49.8 °F /  9.9 °C 29.8in /  1008.7hPa Oeste 3.2mph /  5.1km/h 6mph /  9.7km/h 56% 0in /  0.0mm
05:14 66 °F /  18.9 °C 49.8 °F /  9.9 °C 29.8in /  1008.7hPa Oeste 3.6mph /  5.8km/h 3.5mph /  5.6km/h 56% 0in /  0.0mm
05:19 66 °F /  18.9 °C 49.8 °F /  9.9 °C 29.8in /  1008.4hPa SSO 2.5mph /  4.1km/h 4.6mph /  7.4km/h 56% 0in /  0.0mm
05:24 66.2 °F /  19 °C 49.6 °F /  9.8 °C 29.8in /  1008.4hPa SSO 1.8mph /  2.9km/h 5mph /  8km/h 55.2% 0in /  0.0mm
05:29 66.4 °F /  19.1 °C 49.8 °F /  9.9 °C 29.8in /  1008.4hPa OSO 2.1mph /  3.4km/h 5.4mph /  8.7km/h 55% 0in /  0.0mm
05:34 66.7 °F /  19.3 °C 50 °F /  10 °C 29.8in /  1007.9hPa SSO 2.4mph /  3.9km/h 6.2mph /  10km/h 55% 0in /  0.0mm
05:39 66.9 °F /  19.4 °C 49.8 °F /  9.9 °C 29.8in /  1007.9hPa Sur 3.3mph /  5.3km/h 7.4mph /  11.9km/h 54.1% 0in /  0.0mm
05:44 66.9 °F /  19.4 °C 50 °F /  10 °C 29.8in /  1008.5hPa SSE 4mph /  6.4km/h 7.4mph /  11.9km/h 54.6% 0in /  0.0mm
05:49 66.7 °F /  19.3 °C 50.2 °F /  10.1 °C 29.8in /  1008.5hPa Sur 4.4mph /  7.1km/h 8.7mph /  14km/h 55.3% 0in /  0.0mm
05:54 66.6 °F /  19.2 °C 50.4 °F /  10.2 °C 29.8in /  1008.5hPa Sur 4.7mph /  7.6km/h 9.7mph /  15.6km/h 56.2% 0in /  0.0mm
05:59 66 °F /  18.9 °C 50.4 °F /  10.2 °C 29.8in /  1008.8hPa SSE 5.8mph /  9.3km/h 10mph /  16.1km/h 57.2% 0in /  0.0mm
06:04 65.8 °F /  18.8 °C 50.4 °F /  10.2 °C 29.8in /  1008.8hPa Sur 6.4mph /  10.3km/h 10mph /  16.1km/h 57.6% 0in /  0.0mm
06:09 66 °F /  18.9 °C 50.4 °F /  10.2 °C 29.8in /  1008.8hPa SSO 6.1mph /  9.8km/h 9.2mph /  14.8km/h 57% 0in /  0.0mm
06:14 66.2 °F /  19 °C 50.2 °F /  10.1 °C 29.8in /  1009.1hPa SO 5.9mph /  9.5km/h 9mph /  14.5km/h 56.2% 0in /  0.0mm
06:19 66.4 °F /  19.1 °C 50.2 °F /  10.1 °C 29.8in /  1009.1hPa SO 5.5mph /  8.8km/h 9mph /  14.5km/h 56% 0in /  0.0mm
06:24 66.6 °F /  19.2 °C 50.4 °F /  10.2 °C 29.8in /  1009.1hPa SO 5.2mph /  8.4km/h 6.9mph /  11.1km/h 56% 0in /  0.0mm
06:29 66.6 °F /  19.2 °C 50.5 °F /  10.3 °C 29.8in /  1009.4hPa OSO 4.2mph /  6.8km/h 8.1mph /  13km/h 56.5% 0in /  0.0mm
06:34 66.4 °F /  19.1 °C 50.7 °F /  10.4 °C 29.8in /  1009.4hPa Oeste 3.6mph /  5.8km/h 8mph /  12.9km/h 57% 0in /  0.0mm
06:39 66.4 °F /  19.1 °C 50.7 °F /  10.4 °C 29.8in /  1009.4hPa Oeste 3.2mph /  5.1km/h 5mph /  8km/h 57% 0in /  0.0mm
06:44 66 °F /  18.9 °C 50.4 °F /  10.2 °C 29.8in /  1009.4hPa SO 2.9mph /  4.7km/h 5mph /  8km/h 57% 0in /  0.0mm
06:49 66 °F /  18.9 °C 50.4 °F /  10.2 °C 29.8in /  1009.1hPa SO 2.4mph /  3.8km/h 5mph /  8km/h 57% 0in /  0.0mm
06:54 66 °F /  18.9 °C 50.5 °F /  10.3 °C 29.8in /  1009.1hPa OSO 2mph /  3.2km/h 3.6mph /  5.8km/h 57.4% 0in /  0.0mm
06:59 66 °F /  18.9 °C 50.7 °F /  10.4 °C 29.8in /  1009.1hPa NNO 1.9mph /  3km/h 4.7mph /  7.6km/h 57.8% 0in /  0.0mm
07:04 65.8 °F /  18.8 °C 51.1 °F /  10.6 °C 29.8in /  1008.5hPa NNE 1.8mph /  2.9km/h 5mph /  8km/h 58.9% 0in /  0.0mm
07:09 65.7 °F /  18.7 °C 51.3 °F /  10.7 °C 29.8in /  1008.5hPa Este 2.5mph /  4.1km/h 7.4mph /  11.9km/h 59.4% 0in /  0.0mm
07:14 65.3 °F /  18.5 °C 51.1 °F /  10.6 °C 29.8in /  1008.5hPa ENE 3.1mph /  5km/h 7mph /  11.3km/h 60.2% 0in /  0.0mm
07:19 64.9 °F /  18.3 °C 51.1 °F /  10.6 °C 29.8in /  1008.1hPa NE 3.1mph /  5km/h 7mph /  11.3km/h 60.9% 0in /  0.0mm
07:24 64.9 °F /  18.3 °C 50.9 °F /  10.5 °C 29.8in /  1008.1hPa Este 3.1mph /  5km/h 6.2mph /  10km/h 60.3% 0in /  0.0mm
07:29 64.9 °F /  18.3 °C 50.7 °F /  10.4 °C 29.8in /  1008.1hPa NE 3mph /  4.8km/h 6mph /  9.7km/h 60% 0in /  0.0mm
07:34 64.9 °F /  18.3 °C 50.5 °F /  10.3 °C 29.8in /  1007.7hPa ENE 2.9mph /  4.7km/h 5.8mph /  9.3km/h 59.5% 0in /  0.0mm
07:39 65.1 °F /  18.4 °C 50.5 °F /  10.3 °C 29.8in /  1007.7hPa NE 2.9mph /  4.6km/h 6mph /  9.7km/h 59% 0in /  0.0mm
07:44 65.3 °F /  18.5 °C 50.7 °F /  10.4 °C 29.8in /  1007.9hPa NNO 2.9mph /  4.7km/h 5.8mph /  9.3km/h 59.3% 0in /  0.0mm
07:49 65.3 °F /  18.5 °C 51.1 °F /  10.6 °C 29.8in /  1007.9hPa ONO 2.6mph /  4.2km/h 4.6mph /  7.4km/h 59.8% 0in /  0.0mm
07:54 65.3 °F /  18.5 °C 51.4 °F /  10.8 °C 29.8in /  1007.9hPa NO 2.4mph /  3.9km/h 5mph /  8km/h 61% 0in /  0.0mm
07:59 65.1 °F /  18.4 °C 50.9 °F /  10.5 °C 29.8in /  1007.9hPa NNE 2.7mph /  4.3km/h 8.5mph /  13.7km/h 60.1% 0in /  0.0mm
08:04 65.3 °F /  18.5 °C 50.9 °F /  10.5 °C 29.8in /  1007.4hPa NE 2.9mph /  4.6km/h 9mph /  14.5km/h 59.8% 0in /  0.0mm
08:09 65.5 °F /  18.6 °C 50.7 °F /  10.4 °C 29.8in /  1007.4hPa NE 3.5mph /  5.7km/h 7mph /  11.3km/h 59% 0in /  0.0mm
08:14 65.7 °F /  18.7 °C 50.9 °F /  10.5 °C 29.8in /  1007.4hPa Este 4mph /  6.5km/h 5.9mph /  9.5km/h 59% 0in /  0.0mm
08:19 65.8 °F /  18.8 °C 51.1 °F /  10.6 °C 29.8in /  1007.4hPa SE 3.4mph /  5.4km/h 7.4mph /  11.9km/h 59% 0in /  0.0mm
08:24 65.8 °F /  18.8 °C 50.9 °F /  10.5 °C 29.8in /  1007.4hPa SE 2.9mph /  4.7km/h 7mph /  11.3km/h 58.4% 0in /  0.0mm
08:29 66.2 °F /  19 °C 50.9 °F /  10.5 °C 29.8in /  1007.8hPa ESE 3.5mph /  5.6km/h 8.1mph /  13km/h 57.8% 0in /  0.0mm
08:34 66.7 °F /  19.3 °C 50.7 °F /  10.4 °C 29.8in /  1007.8hPa ESE 4mph /  6.5km/h 8.7mph /  14km/h 56.6% 0in /  0.0mm
08:39 67.3 °F /  19.6 °C 50.9 °F /  10.5 °C 29.8in /  1007.8hPa Este 5.2mph /  8.4km/h 9.2mph /  14.8km/h 56% 0in /  0.0mm
08:44 67.8 °F /  19.9 °C 50.7 °F /  10.4 °C 29.8in /  1007.8hPa ENE 5.9mph /  9.5km/h 9.2mph /  14.8km/h 54.4% 0in /  0.0mm
08:49 68.4 °F /  20.2 °C 50.2 °F /  10.1 °C 29.8in /  1007.8hPa NNE 5.5mph /  8.8km/h 9mph /  14.5km/h 52.2% 0in /  0.0mm
08:54 68.9 °F /  20.5 °C 51.4 °F /  10.8 °C 29.8in /  1007.8hPa NO 5.2mph /  8.4km/h 8.5mph /  13.7km/h 53.9% 0in /  0.0mm
08:59 68.2 °F /  20.1 °C 51.3 °F /  10.7 °C 29.8in /  1008.0hPa North 5.2mph /  8.4km/h 9.2mph /  14.8km/h 54.8% 0in /  0.0mm
09:04 68.4 °F /  20.2 °C 51.4 °F /  10.8 °C 29.8in /  1008.0hPa SO 5.2mph /  8.4km/h 9mph /  14.5km/h 54.9% 0.01in /  0.3mm
09:09 68.4 °F /  20.2 °C 52 °F /  11.1 °C 29.8in /  1008.0hPa SE 3.6mph /  5.8km/h 6.2mph /  10km/h 55.7% 0.01in /  0.3mm
09:14 68.5 °F /  20.3 °C 51.8 °F /  11 °C 29.8in /  1008.0hPa NE 2.4mph /  3.9km/h 9.2mph /  14.8km/h 55.2% 0.01in /  0.3mm
09:19 68.7 °F /  20.4 °C 53.4 °F /  11.9 °C 29.8in /  1007.7hPa NE 3.4mph /  5.4km/h 9mph /  14.5km/h 58.3% 0.01in /  0.3mm
09:24 68 °F /  20 °C 54.3 °F /  12.4 °C 29.8in /  1007.7hPa NNE 4mph /  6.5km/h 6.2mph /  10km/h 61.9% 0.01in /  0.3mm
09:29 66.9 °F /  19.4 °C 54.7 °F /  12.6 °C 29.8in /  1008.0hPa NE 4mph /  6.5km/h 7.4mph /  11.9km/h 65% 0.01in /  0.3mm
09:34 66.2 °F /  19 °C 54.9 °F /  12.7 °C 29.8in /  1008.0hPa NE 4mph /  6.5km/h 7mph /  11.3km/h 66.7% 0.01in /  0.3mm
09:39 66.4 °F /  19.1 °C 55.4 °F /  13 °C 29.8in /  1008.0hPa Este 4.2mph /  6.7km/h 7.4mph /  11.9km/h 67.9% 0.01in /  0.3mm
09:44 66.9 °F /  19.4 °C 55.6 °F /  13.1 °C 29.8in /  1008.1hPa Este 4.3mph /  6.9km/h 8.1mph /  13km/h 67% 0.01in /  0.3mm
09:49 67.6 °F /  19.8 °C 55.9 °F /  13.3 °C 29.8in /  1008.1hPa ENE 4.5mph /  7.3km/h 8mph /  12.9km/h 66.3% 0.01in /  0.3mm
09:54 68.5 °F /  20.3 °C 55.9 °F /  13.3 °C 29.8in /  1008.1hPa NNE 4.7mph /  7.6km/h 6.2mph /  10km/h 64.4% 0.01in /  0.3mm
09:59 69.4 °F /  20.8 °C 56.3 °F /  13.5 °C 29.8in /  1008.1hPa NNE 4.2mph /  6.8km/h 6.9mph /  11.1km/h 63% 0.01in /  0.3mm
10:04 70.2 °F /  21.2 °C 56.8 °F /  13.8 °C 29.8in /  1007.7hPa NE 4mph /  6.5km/h 8.1mph /  13km/h 62.6% 0.01in /  0.3mm
10:09 70.7 °F /  21.5 °C 57 °F /  13.9 °C 29.8in /  1007.7hPa NNE 4mph /  6.5km/h 8mph /  12.9km/h 62% 0in /  0.0mm
10:14 71.4 °F /  21.9 °C 57.2 °F /  14 °C 29.8in /  1007.9hPa NNE 4mph /  6.5km/h 8.1mph /  13km/h 60.8% 0in /  0.0mm
10:19 72.5 °F /  22.5 °C 57.4 °F /  14.1 °C 29.8in /  1007.9hPa NNE 4.2mph /  6.7km/h 8mph /  12.9km/h 59.1% 0in /  0.0mm
10:24 73.2 °F /  22.9 °C 56.7 °F /  13.7 °C 29.8in /  1007.9hPa NE 4.3mph /  6.9km/h 8.1mph /  13km/h 56.1% 0in /  0.0mm
10:29 73.8 °F /  23.2 °C 56.5 °F /  13.6 °C 29.8in /  1007.9hPa ENE 4.1mph /  6.6km/h 11.8mph /  19km/h 54.9% 0in /  0.0mm
10:34 74.1 °F /  23.4 °C 54.9 °F /  12.7 °C 29.8in /  1007.8hPa ENE 4mph /  6.5km/h 12mph /  19.3km/h 51% 0in /  0.0mm
10:39 75.2 °F /  24 °C 54.9 °F /  12.7 °C 29.8in /  1007.8hPa Este 4.4mph /  7.1km/h 15.2mph /  24.5km/h 49.2% 0in /  0.0mm
10:44 76.1 °F /  24.5 °C 53.4 °F /  11.9 °C 29.8in /  1007.8hPa ESE 4.7mph /  7.6km/h 15mph /  24.1km/h 45.5% 0in /  0.0mm
10:49 76.6 °F /  24.8 °C 53.6 °F /  12 °C 29.8in /  1007.8hPa Este 7mph /  11.2km/h 15mph /  24.1km/h 44.9% 0in /  0.0mm
10:54 76.8 °F /  24.9 °C 53.4 °F /  11.9 °C 29.8in /  1007.8hPa ESE 8.7mph /  14km/h 14mph /  22.5km/h 44.3% 0in /  0.0mm
10:59 76.6 °F /  24.8 °C 54.1 °F /  12.3 °C 29.8in /  1007.8hPa Este 8mph /  12.8km/h 16.1mph /  25.9km/h 45.7% 0in /  0.0mm
11:04 76.3 °F /  24.6 °C 54.3 °F /  12.4 °C 29.8in /  1007.8hPa ENE 7.6mph /  12.2km/h 16mph /  25.7km/h 46.6% 0in /  0.0mm
11:09 76.5 °F /  24.7 °C 54.7 °F /  12.6 °C 29.8in /  1007.8hPa ENE 7.2mph /  11.6km/h 14mph /  22.5km/h 47% 0in /  0.0mm
11:14 76.6 °F /  24.8 °C 55.4 °F /  13 °C 29.8in /  1007.8hPa Este 6.9mph /  11.1km/h 11.5mph /  18.5km/h 47.9% 0in /  0.0mm
11:19 76.8 °F /  24.9 °C 55.8 °F /  13.2 °C 29.8in /  1007.7hPa NE 6.3mph /  10.1km/h 12mph /  19.3km/h 48.1% 0in /  0.0mm
11:24 77.4 °F /  25.2 °C 55.8 °F /  13.2 °C 29.8in /  1007.7hPa Este 5.9mph /  9.5km/h 10.4mph /  16.7km/h 47.6% 0in /  0.0mm
11:29 77.5 °F /  25.3 °C 55 °F /  12.8 °C 29.8in /  1007.7hPa ESE 5.2mph /  8.4km/h 10.7mph /  17.2km/h 46.1% 0in /  0.0mm
11:34 77.5 °F /  25.3 °C 54.1 °F /  12.3 °C 29.8in /  1007.6hPa ESE 4.7mph /  7.6km/h 13.8mph /  22.2km/h 44.3% 0in /  0.0mm
11:39 77.9 °F /  25.5 °C 54.9 °F /  12.7 °C 29.8in /  1007.6hPa SE 6.3mph /  10.1km/h 15.6mph /  25.1km/h 45% 0in /  0.0mm
11:44 77.7 °F /  25.4 °C 55 °F /  12.8 °C 29.8in /  1007.6hPa SE 7.4mph /  11.9km/h 22.3mph /  35.9km/h 45.4% 0in /  0.0mm
11:49 77.5 °F /  25.3 °C 55.6 °F /  13.1 °C 29.8in /  1007.6hPa SE 8.5mph /  13.7km/h 22mph /  35.4km/h 46.8% 0in /  0.0mm
11:54 77.5 °F /  25.3 °C 55 °F /  12.8 °C 29.8in /  1007.6hPa SE 9.2mph /  14.8km/h 24.2mph /  38.9km/h 46% 0in /  0.0mm
11:59 77.5 °F /  25.3 °C 54.1 °F /  12.3 °C 29.8in /  1007.6hPa SE 8.8mph /  14.1km/h 24mph /  38.6km/h 44.3% 0in /  0.0mm
12:04 77.7 °F /  25.4 °C 54.5 °F /  12.5 °C 29.8in /  1007.5hPa SE 8.5mph /  13.7km/h 20.7mph /  33.3km/h 44.7% 0in /  0.0mm
12:09 77.7 °F /  25.4 °C 54.5 °F /  12.5 °C 29.8in /  1007.5hPa SE 9.6mph /  15.4km/h 21mph /  33.8km/h 44.6% 0in /  0.0mm
12:14 77.5 °F /  25.3 °C 54.7 °F /  12.6 °C 29.8in /  1007.6hPa SE 10.2mph /  16.4km/h 20mph /  32.2km/h 45% 0in /  0.0mm
12:19 77.9 °F /  25.5 °C 54.7 °F /  12.6 °C 29.8in /  1007.6hPa SE 11.4mph /  18.3km/h 20mph /  32.2km/h 44.7% 0in /  0.0mm
12:24 78.3 °F /  25.7 °C 54.7 °F /  12.6 °C 29.8in /  1007.6hPa SE 12.3mph /  19.8km/h 26.8mph /  43.1km/h 44.2% 0in /  0.0mm
12:29 77.7 °F /  25.4 °C 54.3 °F /  12.4 °C 29.8in /  1007.6hPa SE 13.2mph /  21.3km/h 27mph /  43.5km/h 44.4% 0in /  0.0mm
12:34 77.5 °F /  25.3 °C 55 °F /  12.8 °C 29.7in /  1007.3hPa SE 14mph /  22.5km/h 25mph /  40.2km/h 45.8% 0in /  0.0mm
12:39 77.5 °F /  25.3 °C 55 °F /  12.8 °C 29.7in /  1007.3hPa SE 15mph /  24.2km/h 24mph /  38.6km/h 46% 0in /  0.0mm
12:44 77.9 °F /  25.5 °C 55 °F /  12.8 °C 29.7in /  1007.3hPa SE 15.6mph /  25.1km/h 24.6mph /  39.6km/h 45.4% 0in /  0.0mm
12:49 77.9 °F /  25.5 °C 55.6 °F /  13.1 °C 29.7in /  1007.2hPa SE 16mph /  25.7km/h 25mph /  40.2km/h 46% 0in /  0.0mm
12:54 78.1 °F /  25.6 °C 55.8 °F /  13.2 °C 29.7in /  1007.2hPa SE 16.3mph /  26.2km/h 24mph /  38.6km/h 46.2% 0in /  0.0mm
12:59 78.4 °F /  25.8 °C 56.1 °F /  13.4 °C 29.7in /  1007.2hPa SSE 13.7mph /  22km/h 22mph /  35.4km/h 46.1% 0in /  0.0mm
13:04 78.6 °F /  25.9 °C 55.9 °F /  13.3 °C 29.7in /  1006.9hPa SE 12.3mph /  19.8km/h 20.7mph /  33.3km/h 45.7% 0in /  0.0mm
13:09 78.6 °F /  25.9 °C 56.1 °F /  13.4 °C 29.7in /  1006.9hPa SSE 12.4mph /  20km/h 22.3mph /  35.9km/h 46% 0in /  0.0mm
13:14 78.6 °F /  25.9 °C 55.9 °F /  13.3 °C 29.7in /  1007.0hPa SSE 12.5mph /  20.1km/h 22mph /  35.4km/h 45.9% 0in /  0.0mm
13:19 78.6 °F /  25.9 °C 56.1 °F /  13.4 °C 29.7in /  1007.0hPa SSE 12.5mph /  20.1km/h 19.6mph /  31.5km/h 46.2% 0in /  0.0mm
13:24 79 °F /  26.1 °C 56.1 °F /  13.4 °C 29.7in /  1007.0hPa SE 12.5mph /  20.1km/h 20mph /  32.2km/h 45.6% 0in /  0.0mm
13:29 79.3 °F /  26.3 °C 56.7 °F /  13.7 °C 29.7in /  1007.0hPa SE 11.7mph /  18.9km/h 18.5mph /  29.8km/h 45.9% 0in /  0.0mm
13:34 79.3 °F /  26.3 °C 56.3 °F /  13.5 °C 29.7in /  1006.8hPa SE 11.2mph /  18km/h 19mph /  30.6km/h 45.2% 0in /  0.0mm
13:39 79.7 °F /  26.5 °C 56.3 °F /  13.5 °C 29.7in /  1006.8hPa SE 10.9mph /  17.6km/h 18mph /  29km/h 44.9% 0in /  0.0mm
13:44 80.2 °F /  26.8 °C 56.3 °F /  13.5 °C 29.7in /  1006.8hPa SE 10.7mph /  17.2km/h 17.3mph /  27.8km/h 44% 0in /  0.0mm
13:49 80.2 °F /  26.8 °C 56.7 °F /  13.7 °C 29.7in /  1006.5hPa SE 10.3mph /  16.5km/h 21.3mph /  34.3km/h 44.6% 0in /  0.0mm
13:54 80.4 °F /  26.9 °C 56.3 °F /  13.5 °C 29.7in /  1006.5hPa SE 10mph /  16.1km/h 23.5mph /  37.8km/h 43.7% 0in /  0.0mm
13:59 80.1 °F /  26.7 °C 56.1 °F /  13.4 °C 29.7in /  1006.5hPa SSE 12.1mph /  19.4km/h 23mph /  37km/h 44% 0in /  0.0mm
14:04 80.2 °F /  26.8 °C 56.3 °F /  13.5 °C 29.7in /  1006.2hPa SSE 13.5mph /  21.7km/h 21.9mph /  35.2km/h 44.1% 0in /  0.0mm
14:09 80.2 °F /  26.8 °C 56.7 °F /  13.7 °C 29.7in /  1006.2hPa SSE 13.2mph /  21.3km/h 22mph /  35.4km/h 44.5% 0in /  0.0mm
14:14 80.2 °F /  26.8 °C 57 °F /  13.9 °C 29.7in /  1006.2hPa SE 13mph /  20.9km/h 22mph /  35.4km/h 45% 0in /  0.0mm
14:19 80.4 °F /  26.9 °C 57.2 °F /  14 °C 29.7in /  1005.9hPa SE 13.3mph /  21.4km/h 21.3mph /  34.3km/h 45.1% 0in /  0.0mm
14:24 80.4 °F /  26.9 °C 57.2 °F /  14 °C 29.7in /  1005.9hPa SSE 13.5mph /  21.7km/h 24.6mph /  39.6km/h 45.2% 0in /  0.0mm
14:29 80.1 °F /  26.7 °C 57 °F /  13.9 °C 29.7in /  1005.9hPa SSE 14.8mph /  23.8km/h 28.8mph /  46.3km/h 45.2% 0in /  0.0mm
14:34 80.6 °F /  27 °C 57.4 °F /  14.1 °C 29.7in /  1005.7hPa SSE 15.6mph /  25.1km/h 29mph /  46.7km/h 45.3% 0in /  0.0mm
14:39 80.8 °F /  27.1 °C 57.4 °F /  14.1 °C 29.7in /  1005.7hPa SSE 15.1mph /  24.3km/h 31.1mph /  50.1km/h 44.8% 0in /  0.0mm
14:44 80.6 °F /  27 °C 57.2 °F /  14 °C 29.7in /  1005.7hPa SE 14.7mph /  23.7km/h 31mph /  49.9km/h 44.9% 0in /  0.0mm
14:49 80.6 °F /  27 °C 57 °F /  13.9 °C 29.7in /  1005.5hPa SSE 16.3mph /  26.3km/h 30.6mph /  49.2km/h 44.5% 0in /  0.0mm
14:54 81 °F /  27.2 °C 56.7 °F /  13.7 °C 29.7in /  1005.5hPa SSE 17.5mph /  28.2km/h 31.1mph /  50.1km/h 43.5% 0in /  0.0mm
14:59 80.4 °F /  26.9 °C 57 °F /  13.9 °C 29.7in /  1005.5hPa SE 17.1mph /  27.5km/h 31mph /  49.9km/h 44.8% 0in /  0.0mm
15:04 80.4 °F /  26.9 °C 56.8 °F /  13.8 °C 29.7in /  1005.4hPa SSE 16.8mph /  27km/h 24.2mph /  38.9km/h 44.6% 0in /  0.0mm
15:09 80.4 °F /  26.9 °C 57.2 °F /  14 °C 29.7in /  1005.4hPa SE 16.8mph /  27km/h 26.5mph /  42.6km/h 45.3% 0in /  0.0mm
15:14 80.6 °F /  27 °C 57.6 °F /  14.2 °C 29.7in /  1005.4hPa SE 16.8mph /  27km/h 26mph /  41.8km/h 45.3% 0in /  0.0mm
15:19 81.1 °F /  27.3 °C 57.2 °F /  14 °C 29.7in /  1005.0hPa SE 15.2mph /  24.5km/h 28.8mph /  46.3km/h 44.1% 0in /  0.0mm
15:24 81.7 °F /  27.6 °C 57.2 °F /  14 °C 29.7in /  1005.0hPa SSE 14mph /  22.5km/h 29mph /  46.7km/h 43.4% 0in /  0.0mm
15:29 81.7 °F /  27.6 °C 56.7 °F /  13.7 °C 29.7in /  1005.0hPa SE 13.4mph /  21.6km/h 27.9mph /  44.9km/h 42.3% 0in /  0.0mm
15:34 81.7 °F /  27.6 °C 55.9 °F /  13.3 °C 29.7in /  1004.7hPa SE 13mph /  20.9km/h 28mph /  45.1km/h 41.4% 0in /  0.0mm
15:39 81.9 °F /  27.7 °C 56.5 °F /  13.6 °C 29.7in /  1004.7hPa SSE 15mph /  24.2km/h 27.6mph /  44.4km/h 42% 0in /  0.0mm
15:44 82 °F /  27.8 °C 55.8 °F /  13.2 °C 29.7in /  1004.7hPa SSE 16.3mph /  26.2km/h 29.9mph /  48.1km/h 40.8% 0in /  0.0mm
15:49 82.2 °F /  27.9 °C 55.6 °F /  13.1 °C 29.7in /  1004.6hPa SSE 16.3mph /  26.2km/h 30mph /  48.3km/h 40% 0in /  0.0mm
15:54 82.6 °F /  28.1 °C 55.8 °F /  13.2 °C 29.7in /  1004.6hPa SE 16.3mph /  26.2km/h 25.6mph /  41.2km/h 39.9% 0in /  0.0mm
15:59 82.4 °F /  28 °C 55.4 °F /  13 °C 29.7in /  1004.6hPa SE 15.3mph /  24.6km/h 32.2mph /  51.8km/h 39.6% 0in /  0.0mm
16:04 82.4 °F /  28 °C 54.9 °F /  12.7 °C 29.7in /  1004.3hPa SSE 14.7mph /  23.7km/h 32mph /  51.5km/h 39% 0in /  0.0mm
16:09 82 °F /  27.8 °C 55 °F /  12.8 °C 29.7in /  1004.3hPa SSE 16mph /  25.8km/h 31.3mph /  50.4km/h 39.5% 0in /  0.0mm
16:14 81.9 °F /  27.7 °C 54.5 °F /  12.5 °C 29.7in /  1004.3hPa SSE 17mph /  27.4km/h 32.2mph /  51.8km/h 39.2% 0in /  0.0mm
16:19 82 °F /  27.8 °C 54.5 °F /  12.5 °C 29.7in /  1004.0hPa SSE 17.6mph /  28.4km/h 34.5mph /  55.5km/h 39% 0in /  0.0mm
16:24 81.7 °F /  27.6 °C 54.3 °F /  12.4 °C 29.7in /  1004.0hPa SSE 18.1mph /  29.1km/h 35mph /  56.3km/h 39% 0in /  0.0mm
16:29 81.7 °F /  27.6 °C 54.3 °F /  12.4 °C 29.7in /  1004.0hPa SE 17.9mph /  28.8km/h 32mph /  51.5km/h 39% 0in /  0.0mm
16:34 82 °F /  27.8 °C 54.7 °F /  12.6 °C 29.6in /  1003.9hPa SSE 17.8mph /  28.7km/h 31.3mph /  50.4km/h 39% 0in /  0.0mm
16:39 81.9 °F /  27.7 °C 54.3 °F /  12.4 °C 29.6in /  1003.9hPa SE 17mph /  27.3km/h 31.1mph /  50.1km/h 39% 0in /  0.0mm
16:44 81.9 °F /  27.7 °C 54.3 °F /  12.4 °C 29.6in /  1003.9hPa SE 16.3mph /  26.2km/h 31mph /  49.9km/h 38.8% 0in /  0.0mm
16:49 82 °F /  27.8 °C 54 °F /  12.2 °C 29.6in /  1003.4hPa SE 16.3mph /  26.2km/h 30.1mph /  48.4km/h 38% 0in /  0.0mm
16:54 82 °F /  27.8 °C 54 °F /  12.2 °C 29.6in /  1003.4hPa SE 16.3mph /  26.2km/h 30.6mph /  49.2km/h 38% 0in /  0.0mm
16:59 82.4 °F /  28 °C 54.1 °F /  12.3 °C 29.6in /  1003.4hPa SE 17.2mph /  27.7km/h 31.1mph /  50.1km/h 38% 0in /  0.0mm
17:04 82.6 °F /  28.1 °C 54.3 °F /  12.4 °C 29.6in /  1003.0hPa SE 17.8mph /  28.7km/h 30mph /  48.3km/h 38% 0in /  0.0mm
17:09 82.8 °F /  28.2 °C 53.8 °F /  12.1 °C 29.6in /  1003.0hPa SE 16.4mph /  26.4km/h 27.6mph /  44.4km/h 37% 0in /  0.0mm
17:14 82.8 °F /  28.2 °C 53.8 °F /  12.1 °C 29.6in /  1003.0hPa SE 15.6mph /  25.1km/h 29.1mph /  46.8km/h 37% 0in /  0.0mm
17:19 82.8 °F /  28.2 °C 53.6 °F /  12 °C 29.6in /  1002.9hPa SE 16.5mph /  26.5km/h 31.3mph /  50.4km/h 36.8% 0in /  0.0mm
17:24 82.8 °F /  28.2 °C 53.2 °F /  11.8 °C 29.6in /  1002.9hPa SE 17mph /  27.4km/h 31.1mph /  50.1km/h 36.2% 0in /  0.0mm
17:29 82.8 °F /  28.2 °C 53.4 °F /  11.9 °C 29.6in /  1002.9hPa SE 17.9mph /  28.8km/h 27.6mph /  44.4km/h 36.5% 0in /  0.0mm
17:34 82.8 °F /  28.2 °C 53.2 °F /  11.8 °C 29.6in /  1002.8hPa SE 18.5mph /  29.8km/h 32.2mph /  51.8km/h 36.1% 0in /  0.0mm
17:39 82.9 °F /  28.3 °C 53.8 °F /  12.1 °C 29.6in /  1002.8hPa SE 17.5mph /  28.2km/h 32mph /  51.5km/h 36.8% 0in /  0.0mm
17:44 82.9 °F /  28.3 °C 53.2 °F /  11.8 °C 29.6in /  1002.8hPa SE 17mph /  27.4km/h 29mph /  46.7km/h 36% 0in /  0.0mm
17:49 82.9 °F /  28.3 °C 53.2 °F /  11.8 °C 29.6in /  1002.6hPa SE 16.9mph /  27.2km/h 30.1mph /  48.4km/h 36% 0in /  0.0mm
17:54 83.1 °F /  28.4 °C 53.2 °F /  11.8 °C 29.6in /  1002.6hPa SE 16.8mph /  27km/h 34.5mph /  55.5km/h 35.8% 0in /  0.0mm
17:59 82.9 °F /  28.3 °C 53.6 °F /  12 °C 29.6in /  1002.6hPa SSE 16.3mph /  26.2km/h 35mph /  56.3km/h 36.4% 0in /  0.0mm
18:04 83.1 °F /  28.4 °C 53.8 °F /  12.1 °C 29.6in /  1002.4hPa SE 15.9mph /  25.6km/h 26mph /  41.8km/h 36.7% 0in /  0.0mm
18:09 83.3 °F /  28.5 °C 53.8 °F /  12.1 °C 29.6in /  1002.4hPa SE 14.1mph /  22.7km/h 25mph /  40.2km/h 36.3% 0in /  0.0mm
18:14 83.1 °F /  28.4 °C 54.1 °F /  12.3 °C 29.6in /  1002.4hPa SE 13mph /  20.9km/h 22mph /  35.4km/h 37% 0in /  0.0mm
18:19 83.1 °F /  28.4 °C 54.1 °F /  12.3 °C 29.6in /  1002.3hPa SE 12.6mph /  20.3km/h 25.3mph /  40.7km/h 37% 0in /  0.0mm
18:24 83.1 °F /  28.4 °C 54.1 °F /  12.3 °C 29.6in /  1002.3hPa SE 12.3mph /  19.8km/h 25mph /  40.2km/h 37% 0in /  0.0mm
18:29 83.1 °F /  28.4 °C 54.1 °F /  12.3 °C 29.6in /  1002.3hPa SE 12.7mph /  20.5km/h 26.8mph /  43.1km/h 37% 0in /  0.0mm
18:34 82.9 °F /  28.3 °C 54.7 °F /  12.6 °C 29.6in /  1002.3hPa SE 13mph /  20.9km/h 29.1mph /  46.8km/h 37.8% 0in /  0.0mm
18:39 82.6 °F /  28.1 °C 55 °F /  12.8 °C 29.6in /  1002.3hPa SE 14.7mph /  23.7km/h 32.2mph /  51.8km/h 38.8% 0in /  0.0mm
18:44 82.6 °F /  28.1 °C 55 °F /  12.8 °C 29.6in /  1002.3hPa SE 15.9mph /  25.6km/h 32mph /  51.5km/h 39% 0in /  0.0mm
18:49 82.6 °F /  28.1 °C 55.4 °F /  13 °C 29.6in /  1002.1hPa SE 16.6mph /  26.7km/h 26.5mph /  42.6km/h 39.3% 0in /  0.0mm
18:54 82.4 °F /  28 °C 55.8 °F /  13.2 °C 29.6in /  1002.1hPa SE 17mph /  27.4km/h 26mph /  41.8km/h 40.1% 0in /  0.0mm
18:59 82 °F /  27.8 °C 56.1 °F /  13.4 °C 29.6in /  1002.1hPa SE 15.5mph /  24.9km/h 24.6mph /  39.6km/h 41% 0in /  0.0mm
19:04 82 °F /  27.8 °C 56.1 °F /  13.4 °C 29.6in /  1002.0hPa SE 14.5mph /  23.3km/h 25mph /  40.2km/h 41.1% 0in /  0.0mm
19:09 82 °F /  27.8 °C 55.4 °F /  13 °C 29.6in /  1002.0hPa SE 13.2mph /  21.2km/h 30.1mph /  48.4km/h 40% 0in /  0.0mm
19:14 82.2 °F /  27.9 °C 54.9 °F /  12.7 °C 29.6in /  1002.0hPa SE 12.3mph /  19.8km/h 30mph /  48.3km/h 39% 0in /  0.0mm
19:19 82.2 °F /  27.9 °C 54.9 °F /  12.7 °C 29.6in /  1001.9hPa SE 12.4mph /  20km/h 26.3mph /  42.3km/h 39% 0in /  0.0mm
19:24 82.2 °F /  27.9 °C 54.7 °F /  12.6 °C 29.6in /  1001.9hPa SE 12.5mph /  20.1km/h 26.5mph /  42.6km/h 38.7% 0in /  0.0mm
19:29 82.2 °F /  27.9 °C 54.9 °F /  12.7 °C 29.6in /  1001.9hPa SE 12.5mph /  20.1km/h 26mph /  41.8km/h 39% 0in /  0.0mm
19:34 82 °F /  27.8 °C 54.9 °F /  12.7 °C 29.6in /  1001.8hPa SE 12.5mph /  20.1km/h 23mph /  37km/h 39.4% 0in /  0.0mm
19:39 81.7 °F /  27.6 °C 55 °F /  12.8 °C 29.6in /  1001.8hPa SSE 12.1mph /  19.4km/h 23mph /  37km/h 40% 0in /  0.0mm
19:44 81.7 °F /  27.6 °C 55 °F /  12.8 °C 29.6in /  1002.0hPa SSE 11.8mph /  19km/h 17.3mph /  27.8km/h 40% 0in /  0.0mm
19:49 81.7 °F /  27.6 °C 55.4 °F /  13 °C 29.6in /  1002.0hPa SSE 10.5mph /  16.9km/h 17mph /  27.4km/h 40.6% 0in /  0.0mm
19:54 81.3 °F /  27.4 °C 55.4 °F /  13 °C 29.6in /  1002.0hPa SSE 9.7mph /  15.6km/h 17.3mph /  27.8km/h 41% 0in /  0.0mm
19:59 81.3 °F /  27.4 °C 55.4 °F /  13 °C 29.6in /  1002.0hPa SSE 9.1mph /  14.6km/h 17mph /  27.4km/h 41% 0in /  0.0mm
20:04 81.7 °F /  27.6 °C 55 °F /  12.8 °C 29.6in /  1002.0hPa Sur 8.7mph /  14km/h 13.8mph /  22.2km/h 40.2% 0in /  0.0mm
20:09 81.9 °F /  27.7 °C 55 °F /  12.8 °C 29.6in /  1002.0hPa Sur 8.6mph /  13.8km/h 15mph /  24.1km/h 39.7% 0in /  0.0mm
20:14 81.9 °F /  27.7 °C 55.2 °F /  12.9 °C 29.6in /  1002.2hPa Sur 8.5mph /  13.7km/h 16.1mph /  25.9km/h 40% 0in /  0.0mm
20:19 81.7 °F /  27.6 °C 55 °F /  12.8 °C 29.6in /  1002.2hPa Sur 8.6mph /  13.9km/h 18.4mph /  29.6km/h 40% 0in /  0.0mm
20:24 81.7 °F /  27.6 °C 55 °F /  12.8 °C 29.6in /  1002.2hPa Sur 8.7mph /  14km/h 18mph /  29km/h 40% 0in /  0.0mm
20:29 81.5 °F /  27.5 °C 54.9 °F /  12.7 °C 29.6in /  1002.5hPa Sur 8.7mph /  14km/h 16.3mph /  26.2km/h 40% 0in /  0.0mm
20:34 81.1 °F /  27.3 °C 54.9 °F /  12.7 °C 29.6in /  1002.5hPa Sur 8.7mph /  14km/h 16mph /  25.7km/h 40.3% 0in /  0.0mm
20:39 81 °F /  27.2 °C 55 °F /  12.8 °C 29.6in /  1002.5hPa SSE 9.3mph /  15km/h 18.4mph /  29.6km/h 41% 0in /  0.0mm
20:44 81 °F /  27.2 °C 55 °F /  12.8 °C 29.6in /  1002.8hPa Sur 9.7mph /  15.6km/h 18mph /  29km/h 41.1% 0in /  0.0mm
20:49 81 °F /  27.2 °C 55 °F /  12.8 °C 29.6in /  1002.8hPa Sur 8.3mph /  13.3km/h 14mph /  22.5km/h 41% 0in /  0.0mm
20:54 81 °F /  27.2 °C 55 °F /  12.8 °C 29.6in /  1002.8hPa Sur 7.4mph /  11.9km/h 15mph /  24.1km/h 41% 0in /  0.0mm
20:59 81 °F /  27.2 °C 55.2 °F /  12.9 °C 29.6in /  1003.0hPa SSO 8.1mph /  13.1km/h 15mph /  24.1km/h 41.4% 0in /  0.0mm
21:04 80.6 °F /  27 °C 55.4 °F /  13 °C 29.6in /  1003.0hPa SSO 8.7mph /  14km/h 13mph /  20.9km/h 42% 0in /  0.0mm
21:09 80.4 °F /  26.9 °C 55.4 °F /  13 °C 29.6in /  1003.0hPa Sur 8.3mph /  13.4km/h 13mph /  20.9km/h 42.3% 0in /  0.0mm
21:14 80.2 °F /  26.8 °C 55.8 °F /  13.2 °C 29.6in /  1003.2hPa Sur 8.1mph /  13km/h 15mph /  24.1km/h 43.2% 0in /  0.0mm
21:19 80.1 °F /  26.7 °C 56.1 °F /  13.4 °C 29.6in /  1003.2hPa SSO 8.4mph /  13.6km/h 15mph /  24.1km/h 44% 0in /  0.0mm
21:24 79.7 °F /  26.5 °C 56.1 °F /  13.4 °C 29.6in /  1003.2hPa SSO 8.7mph /  14km/h 12mph /  19.3km/h 44.7% 0in /  0.0mm
21:29 79.3 °F /  26.3 °C 56.3 °F /  13.5 °C 29.6in /  1003.5hPa Sur 7.3mph /  11.8km/h 10.7mph /  17.2km/h 45% 0in /  0.0mm
21:34 79.3 °F /  26.3 °C 56.1 °F /  13.4 °C 29.6in /  1003.5hPa Sur 6.4mph /  10.3km/h 11mph /  17.7km/h 45% 0in /  0.0mm
21:39 79.2 °F /  26.2 °C 55.9 °F /  13.3 °C 29.6in /  1003.5hPa Sur 6.4mph /  10.3km/h 10.4mph /  16.7km/h 45% 0in /  0.0mm
21:44 79.2 °F /  26.2 °C 55 °F /  12.8 °C 29.6in /  1003.6hPa Sur 6.4mph /  10.3km/h 10.7mph /  17.2km/h 43.6% 0in /  0.0mm
21:49 79.2 °F /  26.2 °C 54.9 °F /  12.7 °C 29.6in /  1003.6hPa Sur 6.4mph /  10.3km/h 11mph /  17.7km/h 43.3% 0in /  0.0mm
21:54 79.2 °F /  26.2 °C 54.3 °F /  12.4 °C 29.6in /  1003.6hPa SSO 6.4mph /  10.3km/h 9.2mph /  14.8km/h 42.5% 0in /  0.0mm
21:59 79.2 °F /  26.2 °C 54.1 °F /  12.3 °C 29.7in /  1004.3hPa SSO 5.6mph /  9km/h 9mph /  14.5km/h 42% 0in /  0.0mm
22:04 79.2 °F /  26.2 °C 53.8 °F /  12.1 °C 29.7in /  1004.3hPa SSO 5.2mph /  8.4km/h 9.2mph /  14.8km/h 41.6% 0in /  0.0mm
22:09 79.2 °F /  26.2 °C 53.4 °F /  11.9 °C 29.7in /  1004.3hPa SSO 5.2mph /  8.4km/h 10mph /  16.1km/h 41% 0in /  0.0mm
22:14 79.2 °F /  26.2 °C 53.2 °F /  11.8 °C 29.7in /  1004.6hPa SSO 5.2mph /  8.4km/h 10.4mph /  16.7km/h 40.6% 0in /  0.0mm
22:19 79.2 °F /  26.2 °C 53.8 °F /  12.1 °C 29.7in /  1004.6hPa ONO 5.3mph /  8.6km/h 10mph /  16.1km/h 41.6% 0in /  0.0mm
22:24 78.6 °F /  25.9 °C 53.2 °F /  11.8 °C 29.7in /  1004.6hPa OSO 5.4mph /  8.7km/h 12.3mph /  19.8km/h 41.3% 0in /  0.0mm
22:29 78.4 °F /  25.8 °C 52.7 °F /  11.5 °C 29.7in /  1005.4hPa ONO 5.4mph /  8.7km/h 13mph /  20.9km/h 40.8% 0in /  0.0mm
22:34 78.3 °F /  25.7 °C 52.5 °F /  11.4 °C 29.7in /  1005.4hPa OSO 5.4mph /  8.7km/h 13.8mph /  22.2km/h 41% 0in /  0.0mm
22:39 77.7 °F /  25.4 °C 52.2 °F /  11.2 °C 29.7in /  1005.4hPa Oeste 5.4mph /  8.7km/h 14mph /  22.5km/h 41% 0in /  0.0mm
22:44 77.4 °F /  25.2 °C 51.8 °F /  11 °C 29.7in /  1005.8hPa Oeste 5.4mph /  8.7km/h 19.2mph /  30.9km/h 41% 0in /  0.0mm
22:49 76.6 °F /  24.8 °C 51.3 °F /  10.7 °C 29.7in /  1005.8hPa ONO 7.1mph /  11.5km/h 26.3mph /  42.3km/h 41% 0in /  0.0mm
22:54 76.3 °F /  24.6 °C 51.3 °F /  10.7 °C 29.7in /  1005.8hPa Oeste 8.5mph /  13.7km/h 26.5mph /  42.6km/h 41.8% 0in /  0.0mm
22:59 75.7 °F /  24.3 °C 51.3 °F /  10.7 °C 29.7in /  1006.1hPa ONO 10.4mph /  16.7km/h 26mph /  41.8km/h 42.3% 0in /  0.0mm
23:04 75.4 °F /  24.1 °C 51.3 °F /  10.7 °C 29.7in /  1006.1hPa ONO 11.4mph /  18.4km/h 21.3mph /  34.3km/h 43% 0in /  0.0mm
23:09 75 °F /  23.9 °C 51.1 °F /  10.6 °C 29.7in /  1006.1hPa ONO 12.6mph /  20.3km/h 24.2mph /  38.9km/h 43% 0in /  0.0mm
23:14 74.8 °F /  23.8 °C 51.3 °F /  10.7 °C 29.7in /  1006.4hPa ONO 13.5mph /  21.7km/h 27.9mph /  44.9km/h 43.8% 0in /  0.0mm
23:19 74.7 °F /  23.7 °C 51.3 °F /  10.7 °C 29.7in /  1006.4hPa ONO 13.2mph /  21.3km/h 23mph /  37km/h 44% 0in /  0.0mm
23:24 74.5 °F /  23.6 °C 51.1 °F /  10.6 °C 29.7in /  1006.4hPa ONO 13mph /  20.9km/h 23mph /  37km/h 44% 0in /  0.0mm
23:29 74.1 °F /  23.4 °C 51.4 °F /  10.8 °C 29.7in /  1006.6hPa ONO 12.7mph /  20.4km/h 21mph /  33.8km/h 44.8% 0in /  0.0mm
23:34 74.1 °F /  23.4 °C 51.4 °F /  10.8 °C 29.7in /  1006.6hPa ONO 12.5mph /  20.1km/h 18.4mph /  29.6km/h 45% 0in /  0.0mm
23:39 73.9 °F /  23.3 °C 51.3 °F /  10.7 °C 29.7in /  1006.6hPa ONO 11.1mph /  17.8km/h 17mph /  27.4km/h 45% 0in /  0.0mm
23:44 73.9 °F /  23.3 °C 51.3 °F /  10.7 °C 29.7in /  1006.8hPa ONO 10.2mph /  16.4km/h 14mph /  22.5km/h 45% 0in /  0.0mm
23:49 73.8 °F /  23.2 °C 51.1 °F /  10.6 °C 29.7in /  1006.8hPa ONO 8.6mph /  13.8km/h 13mph /  20.9km/h 45% 0in /  0.0mm
23:54 73.8 °F /  23.2 °C 51.1 °F /  10.6 °C 29.7in /  1006.8hPa ONO 7.4mph /  11.9km/h 12.7mph /  20.4km/h 45% 0in /  0.0mm
23:59 73.6 °F /  23.1 °C 50.9 °F /  10.5 °C 29.7in /  1006.9hPa ONO 6.7mph /  10.8km/h 14mph /  22.5km/h 45% 0in /  0.0mm
Murcia-Puente Tocinos, España
Compliments of Weather Underground - 2.75 mb

La estación de MeteoMurcia.com, publica sus datos en los siguientes proyectos:

Weather Underground PWS IMURCIAP2 Meteoclimatic www.awekas.at

W3Counter
Web Analytics